الصفحة الرئيسية
METAR-TAF:

METAR-TAF

مطار :

ماتسوياما, اليابان

دائرة عرض: 33-49N, خط طول: 132-42E, ارتفاع: 4 متر

مراقبة الطقس الحالي

تاريخ ووقت الإصدار 47 دقيقة قبل الساعة 01:00UTC
ريح 4 عقدة من الغرب
درجة الحرارة 24°درجة مئوية
الرطوبة 89%
ضغط 1010 hPa
الرؤية 10 كم أو أكثر
غيوم قليلة على ارتفاع 2500 قدم
غيوم متفرقة على ارتفاع 12000 قدم
غيوم مفككة على ارتفاع 14000 قدم
زخات في الجوار,

METAR: RJOM 250100Z 26004KT 9999 VCSH FEW025 SCT120 BKN140 24/22 Q1010

زمن: 10:47 (01:47 UTC)

توقعات

تاريخ ووقت الإصدار 2ساعات و 42 دقيقة قبل الساعة 23:05UTC
التوقعات صالحة من25 الساعة 00 UTC إلى 26 الساعة 06 UTC
ريح 6 عقدة من الغرب/الجنوب الغربي
الرؤية 10 كم أو أكثر
غيوم قليلة على ارتفاع 1500 قدم
غيوم متفرقة على ارتفاع 4500 قدم
أصبح
من 25 الساعة 06 UTC إلى 25 الساعة 08 UTC
ريح 5 عقدة من الجنوب/الجنوب الغربي
أصبح
من 26 الساعة 00 UTC إلى 26 الساعة 03 UTC
ريح 7 عقدة من الشمال/الشمال الغربي

TAF: RJOM 242305Z 2500/2606 24006KT 9999 FEW015 SCT045 BECMG 2506/2508 20005KT BECMG 2600/2603 33007KT

أرصاد الطقس والتوقعات من أكثر من 4000 مطار (تقارير الطقس للمطار METAR والتنبؤ بالطقس بالمطارTAF).

المحطات المتاحة هي النقط الصفراء والحمراء على الخريطة.

حرك المؤشر فوق النقطة لمعرفة اسم المحطة.

ثم انقر لمعرفة أرصاد وتوقعات الطقس.

لتغيير الخارطة: اضغط على الأزرار الخضراء مع رمز الصليب الأسود للتكبير. على الزر الأخضر مع شرطة للتصغير، أو على الأسهم الخضراء للخرائط المجاورة.


METAR-TAF: